Time;durP1;ratioP1;P1;durP2;ratioP2;P2;SDS_P1;SDS_P2;PMS_P1;PMS_P2;Temp;Humidity;BMP_temperature;BMP_pressure;BME280_temperature;BME280_humidity;BME280_pressure;Samples;Min_cycle;Max_cycle;Signal;HPM_P1;HPM_P2
2024/01/26 00:02:09;;;;;;;79.90;28.13;;;;;;;6.87;100.00;102127.88;5008859;28;20053;-79
2024/01/26 00:04:36;;;;;;;85.72;29.25;;;;;;;6.90;100.00;102123.66;5018353;28;20061;-79
2024/01/26 00:07:05;;;;;;;83.13;30.13;;;;;;;6.93;100.00;102125.47;5028343;28;20045;-79
2024/01/26 00:09:33;;;;;;;87.93;30.08;;;;;;;6.95;100.00;102123.81;5002238;28;20064;-80
2024/01/26 00:12:00;;;;;;;90.97;29.73;;;;;;;6.96;100.00;102128.25;5011645;28;20495;-79
2024/01/26 00:14:28;;;;;;;103.20;30.33;;;;;;;6.97;100.00;102115.16;4996350;28;20487;-79
2024/01/26 00:16:55;;;;;;;76.22;29.13;;;;;;;7.00;100.00;102117.91;5021421;28;20471;-79
2024/01/26 00:19:22;;;;;;;82.85;30.63;;;;;;;7.02;100.00;102117.97;5027033;28;20095;-79
2024/01/26 00:21:50;;;;;;;85.93;30.77;;;;;;;7.03;100.00;102118.03;5004091;28;20419;-79
2024/01/26 00:24:17;;;;;;;84.03;28.25;;;;;;;7.06;100.00;102112.00;5019947;28;20426;-79
2024/01/26 00:26:49;;;;;;;70.53;27.73;;;;;;;7.08;100.00;102109.47;5005346;28;20379;-79
2024/01/26 00:29:16;;;;;;;89.30;30.25;;;;;;;7.10;100.00;102107.78;4989636;28;20072;-79
2024/01/26 00:31:44;;;;;;;82.65;30.23;;;;;;;7.12;100.00;102100.88;5004113;28;20061;-79
2024/01/26 00:34:12;;;;;;;81.15;30.20;;;;;;;7.14;100.00;102099.19;5009934;28;20056;-79
2024/01/26 00:36:40;;;;;;;80.57;28.02;;;;;;;7.16;100.00;102102.75;4999684;28;20033;-79
2024/01/26 00:39:07;;;;;;;84.88;30.13;;;;;;;7.18;100.00;102093.22;5010448;28;20102;-79
2024/01/26 00:41:35;;;;;;;84.55;29.25;;;;;;;7.17;100.00;102094.97;4997353;28;20403;-79
2024/01/26 00:44:03;;;;;;;79.40;29.95;;;;;;;7.20;100.00;102104.66;5002780;28;20060;-79
2024/01/26 00:46:30;;;;;;;88.20;30.38;;;;;;;7.22;100.00;102097.72;5000146;28;20048;-79
2024/01/26 00:48:58;;;;;;;98.70;31.42;;;;;;;7.24;100.00;102090.84;5029434;28;20045;-79
2024/01/26 00:51:25;;;;;;;89.10;29.58;;;;;;;7.25;100.00;102090.00;5002133;28;20054;-79
2024/01/26 00:53:53;;;;;;;93.20;31.17;;;;;;;7.27;100.00;102096.19;5028716;28;20041;-79
2024/01/26 00:56:20;;;;;;;92.60;32.25;;;;;;;7.28;100.00;102092.75;5000992;28;20061;-79
2024/01/26 00:58:48;;;;;;;100.00;32.65;;;;;;;7.30;100.00;102087.56;5010427;28;20056;-79
2024/01/26 01:01:15;;;;;;;100.63;32.40;;;;;;;7.30;100.00;102077.06;4988152;28;20034;-79
2024/01/26 01:03:43;;;;;;;87.03;32.42;;;;;;;7.31;100.00;102066.63;5010291;28;20049;-79
2024/01/26 01:06:11;;;;;;;95.18;34.28;;;;;;;7.33;100.00;102064.06;5005817;28;20490;-79
2024/01/26 01:08:38;;;;;;;109.55;35.08;;;;;;;7.36;100.00;102051.06;5025674;28;20056;-79
2024/01/26 01:11:06;;;;;;;98.75;34.42;;;;;;;7.36;100.00;102044.06;5008042;28;20044;-79
2024/01/26 01:13:33;;;;;;;104.28;35.58;;;;;;;7.38;100.00;102052.88;4989474;28;20052;-79
2024/01/26 01:16:01;;;;;;;113.43;37.95;;;;;;;7.40;100.00;102059.06;4980355;28;20049;-79
2024/01/26 01:18:28;;;;;;;93.60;35.38;;;;;;;7.42;100.00;102062.63;5018669;28;20052;-79
2024/01/26 01:20:56;;;;;;;102.50;34.85;;;;;;;7.45;100.00;102053.09;5026171;28;20080;-79
2024/01/26 01:23:24;;;;;;;100.00;35.38;;;;;;;7.44;100.00;102060.09;4994788;28;20394;-79
2024/01/26 01:25:51;;;;;;;106.07;34.55;;;;;;;7.46;100.00;102042.66;5028161;28;20045;-79
2024/01/26 01:28:18;;;;;;;96.22;35.10;;;;;;;7.48;100.00;102050.59;5013468;28;20041;-79
2024/01/26 01:30:46;;;;;;;95.45;34.78;;;;;;;7.50;100.00;102047.16;5028359;28;20049;-79
2024/01/26 01:33:13;;;;;;;102.65;35.47;;;;;;;7.51;100.00;102040.22;4977447;28;20061;-80
2024/01/26 01:35:40;;;;;;;98.00;35.58;;;;;;;7.54;100.00;102042.94;5028057;28;20399;-79
2024/01/26 01:38:08;;;;;;;95.22;33.85;;;;;;;7.56;100.00;102041.25;5001511;28;20053;-79
2024/01/26 01:40:35;;;;;;;99.50;34.00;;;;;;;7.57;100.00;102033.44;5026259;28;20041;-80
2024/01/26 01:43:03;;;;;;;98.93;35.65;;;;;;;7.60;100.00;102024.81;5006918;28;20053;-79
2024/01/26 01:45:30;;;;;;;88.75;34.80;;;;;;;7.61;100.00;102023.94;5008335;28;20104;-79
2024/01/26 01:47:58;;;;;;;101.57;35.95;;;;;;;7.62;100.00;102012.63;4995633;28;20056;-79
2024/01/26 01:50:25;;;;;;;103.13;35.45;;;;;;;7.63;100.00;102018.75;4983585;28;20503;-79
2024/01/26 01:52:55;;;;;;;88.68;33.60;;;;;;;7.65;100.00;102015.34;4986093;28;20057;-79
2024/01/26 01:55:23;;;;;;;93.50;33.55;;;;;;;7.69;100.00;102009.34;5007635;28;20803;-79
2024/01/26 01:57:53;;;;;;;93.18;34.28;;;;;;;7.70;100.00;101998.03;4992375;28;20710;-80
2024/01/26 02:00:21;;;;;;;88.45;33.65;;;;;;;7.74;100.00;101999.91;4992207;28;20057;-79
2024/01/26 02:02:49;;;;;;;83.47;32.22;;;;;;;7.76;100.00;102000.84;4958399;28;20080;-80
2024/01/26 02:05:18;;;;;;;81.45;32.35;;;;;;;7.79;100.00;102000.06;5005502;28;20049;-79
2024/01/26 02:07:50;;;;;;;73.95;31.50;;;;;;;7.79;100.00;101979.09;5000830;28;20044;-79
2024/01/26 02:10:18;;;;;;;80.53;31.90;;;;;;;7.81;100.00;101965.16;5008182;28;20418;-79
2024/01/26 02:12:46;;;;;;;71.60;30.35;;;;;;;7.83;100.00;101982.69;5017103;28;20046;-79
2024/01/26 02:15:13;;;;;;;84.10;32.20;;;;;;;7.83;100.00;101977.44;5001526;28;20042;-79
2024/01/26 02:17:41;;;;;;;75.13;30.88;;;;;;;7.84;100.00;101976.59;4996036;28;20068;-79
2024/01/26 02:20:11;;;;;;;71.57;31.05;;;;;;;7.85;100.00;101967.91;4970312;28;20424;-79
2024/01/26 02:22:38;;;;;;;72.33;30.10;;;;;;;7.86;100.00;101973.16;5004914;28;20045;-79
2024/01/26 02:25:07;;;;;;;76.60;32.97;;;;;;;7.88;100.00;101965.34;4996088;28;20301;-80
2024/01/26 02:27:35;;;;;;;80.72;31.38;;;;;;;7.88;100.00;101958.38;5026594;28;20042;-79
2024/01/26 02:30:04;;;;;;;72.63;31.23;;;;;;;7.90;100.00;101947.91;5012763;28;20046;-79
2024/01/26 02:32:31;;;;;;;73.32;33.40;;;;;;;7.90;100.00;101940.03;4998562;28;20056;-79
2024/01/26 02:34:59;;;;;;;71.25;31.15;;;;;;;7.91;100.00;101939.22;4965710;28;20053;-80
2024/01/26 02:37:26;;;;;;;68.30;30.83;;;;;;;7.91;100.00;101929.59;5006932;28;20052;-79
2024/01/26 02:39:53;;;;;;;68.20;31.00;;;;;;;7.94;100.00;101940.19;4998955;28;20405;-80
2024/01/26 02:42:21;;;;;;;75.20;33.25;;;;;;;7.94;100.00;101923.53;5007029;28;20482;-79
2024/01/26 02:44:48;;;;;;;68.63;32.30;;;;;;;7.94;100.00;101924.44;4989505;28;20415;-79
2024/01/26 02:47:16;;;;;;;60.55;29.35;;;;;;;7.94;100.00;101927.06;5008676;28;20450;-79
2024/01/26 02:49:43;;;;;;;63.83;29.83;;;;;;;7.95;100.00;101915.72;4992885;28;20037;-80
2024/01/26 02:52:11;;;;;;;67.85;30.90;;;;;;;7.95;100.00;101913.09;5018228;28;20042;-79
2024/01/26 02:54:38;;;;;;;58.45;29.42;;;;;;;7.96;100.00;101906.13;5025519;28;20041;-81
2024/01/26 02:57:06;;;;;;;56.17;29.65;;;;;;;7.97;100.00;101910.53;4999609;28;20053;-79
2024/01/26 02:59:34;;;;;;;49.70;27.98;;;;;;;7.97;100.00;101895.66;5025972;28;20044;-80
2024/01/26 03:02:01;;;;;;;53.75;29.58;;;;;;;7.98;100.00;101886.06;4999191;28;20045;-79
2024/01/26 03:04:29;;;;;;;52.15;28.80;;;;;;;7.98;100.00;101886.94;4978036;28;20046;-79
2024/01/26 03:06:56;;;;;;;53.22;29.35;;;;;;;8.00;100.00;101877.38;5016153;28;21540;-80
2024/01/26 03:09:24;;;;;;;47.08;27.90;;;;;;;8.00;100.00;101866.00;5026374;28;20394;-79
2024/01/26 03:11:51;;;;;;;44.88;27.27;;;;;;;8.00;100.00;101861.63;5018733;28;20045;-79
2024/01/26 03:14:18;;;;;;;51.40;28.52;;;;;;;8.00;100.00;101859.00;5008158;28;20406;-79
2024/01/26 03:16:46;;;;;;;50.50;28.33;;;;;;;8.03;100.00;101854.69;4997897;28;20060;-80
2024/01/26 03:19:14;;;;;;;46.92;28.08;;;;;;;8.02;100.00;101858.19;5008578;28;20046;-79
2024/01/26 03:21:43;;;;;;;45.55;27.75;;;;;;;8.02;100.00;101852.94;4978233;28;20056;-79
2024/01/26 03:24:11;;;;;;;49.00;28.75;;;;;;;8.02;100.00;101848.56;5003919;28;20491;-80
2024/01/26 03:26:39;;;;;;;49.63;28.02;;;;;;;8.02;100.00;101832.81;4995555;28;20509;-79
2024/01/26 03:29:06;;;;;;;48.30;27.80;;;;;;;8.04;100.00;101825.00;5002454;28;20054;-79
2024/01/26 03:31:34;;;;;;;44.42;27.85;;;;;;;8.04;100.00;101814.50;5022744;28;20072;-79
2024/01/26 03:34:02;;;;;;;45.90;27.60;;;;;;;8.05;100.00;101806.63;5010546;28;20045;-80
2024/01/26 03:36:29;;;;;;;49.40;28.88;;;;;;;8.07;100.00;101790.94;4980912;28;20064;-79
2024/01/26 03:38:57;;;;;;;44.88;27.67;;;;;;;8.06;100.00;101790.06;5011330;28;20502;-79
2024/01/26 03:41:24;;;;;;;44.95;26.15;;;;;;;8.08;100.00;101787.47;5012103;28;20049;-79
2024/01/26 03:43:52;;;;;;;44.95;28.27;;;;;;;8.08;100.00;101785.72;5003500;28;20057;-79
2024/01/26 03:46:20;;;;;;;45.78;27.70;;;;;;;8.10;100.00;101789.28;4984374;28;20049;-79
2024/01/26 03:48:48;;;;;;;41.20;25.48;;;;;;;8.11;100.00;101793.72;5010933;28;20057;-79
2024/01/26 03:51:16;;;;;;;40.03;24.85;;;;;;;8.12;100.00;101784.97;4996222;28;20487;-79
2024/01/26 03:53:44;;;;;;;38.55;24.42;;;;;;;8.12;100.00;101777.09;5026131;28;20105;-80
2024/01/26 03:56:11;;;;;;;41.00;24.17;;;;;;;8.13;100.00;101768.38;5007238;28;20178;-79
2024/01/26 03:58:39;;;;;;;39.03;24.00;;;;;;;8.14;100.00;101774.50;5012035;28;20049;-79
2024/01/26 04:01:06;;;;;;;41.35;24.95;;;;;;;8.16;100.00;101750.06;4996397;28;23399;-79
2024/01/26 04:03:33;;;;;;;47.67;25.13;;;;;;;8.16;100.00;101736.94;5014678;28;20049;-79
2024/01/26 04:06:03;;;;;;;38.45;22.35;;;;;;;8.17;100.00;101725.59;5010075;28;20064;-80
2024/01/26 04:08:32;;;;;;;42.00;23.17;;;;;;;8.19;100.00;101720.41;4977902;28;20034;-79
2024/01/26 04:10:59;;;;;;;39.03;22.88;;;;;;;8.21;100.00;101713.47;4985899;28;20088;-79
2024/01/26 04:13:26;;;;;;;40.90;22.02;;;;;;;8.25;100.00;101709.19;5011600;28;20044;-80
2024/01/26 04:15:54;;;;;;;38.17;22.10;;;;;;;8.26;100.00;101685.59;5019576;28;20545;-79
2024/01/26 04:18:22;;;;;;;34.10;21.33;;;;;;;8.28;100.00;101680.34;5003731;28;20044;-80
2024/01/26 04:20:50;;;;;;;35.30;21.30;;;;;;;8.30;100.00;101668.16;5009644;28;20050;-80
2024/01/26 04:23:17;;;;;;;33.72;21.55;;;;;;;8.31;100.00;101689.19;4978674;28;20423;-79
2024/01/26 04:25:45;;;;;;;41.70;21.85;;;;;;;8.33;100.00;101670.88;5003161;28;20406;-80
2024/01/26 04:28:12;;;;;;;33.47;20.65;;;;;;;8.34;100.00;101673.53;5010704;28;20518;-79
2024/01/26 04:30:42;;;;;;;35.50;21.23;;;;;;;8.37;100.00;101670.09;4987104;28;20045;-79
2024/01/26 04:33:09;;;;;;;31.10;19.77;;;;;;;8.37;100.00;101667.47;4996077;28;20388;-80
2024/01/26 04:35:37;;;;;;;36.22;20.45;;;;;;;8.39;100.00;101666.66;5011039;28;20060;-79
2024/01/26 04:38:07;;;;;;;32.42;20.77;;;;;;;8.41;100.00;101658.81;4993536;28;20053;-79
2024/01/26 04:40:34;;;;;;;34.85;20.85;;;;;;;8.41;100.00;101656.19;5002601;28;20049;-79
2024/01/26 04:43:02;;;;;;;36.90;20.17;;;;;;;8.43;100.00;101648.38;5008769;28;20049;-79
2024/01/26 04:45:30;;;;;;;31.88;19.60;;;;;;;8.45;100.00;101646.66;5010588;28;20415;-78
2024/01/26 04:47:58;;;;;;;33.88;21.77;;;;;;;8.47;100.00;101647.59;4994555;28;20033;-80
2024/01/26 04:50:25;;;;;;;35.30;20.13;;;;;;;8.48;100.00;101642.38;5028470;28;20044;-78
2024/01/26 04:52:53;;;;;;;33.13;20.15;;;;;;;8.51;100.00;101638.97;5000993;28;20064;-79
2024/01/26 04:55:26;;;;;;;30.45;20.67;;;;;;;8.53;100.00;101632.00;4991340;28;20371;-79
2024/01/26 04:57:53;;;;;;;33.70;19.73;;;;;;;8.54;100.00;101636.41;5009051;28;20057;-78
2024/01/26 05:00:21;;;;;;;34.00;21.20;;;;;;;8.55;100.00;101636.44;5011614;28;20034;-81
2024/01/26 05:02:49;;;;;;;32.72;20.17;;;;;;;8.57;100.00;101618.97;5000943;28;20068;-78
2024/01/26 05:05:17;;;;;;;35.15;22.63;;;;;;;8.58;100.00;101631.28;5024645;28;20387;-80
2024/01/26 05:07:44;;;;;;;42.15;21.98;;;;;;;8.61;100.00;101617.31;5003696;28;20076;-78
2024/01/26 05:10:12;;;;;;;34.95;21.75;;;;;;;8.64;100.00;101609.50;4988600;28;20049;-78
2024/01/26 05:12:39;;;;;;;30.83;20.45;;;;;;;8.66;100.00;101602.53;5022307;28;20061;-80
2024/01/26 05:15:11;;;;;;;33.80;20.67;;;;;;;8.67;100.00;101593.78;5010146;28;20061;-81
2024/01/26 05:17:39;;;;;;;35.50;19.90;;;;;;;8.70;100.00;101599.13;5010297;28;21167;-81
2024/01/26 05:20:08;;;;;;;35.63;22.45;;;;;;;8.71;100.00;101594.75;5001691;28;20040;-80
2024/01/26 05:22:36;;;;;;;30.50;19.95;;;;;;;8.74;100.00;101589.56;5003309;28;20064;-80
2024/01/26 05:25:04;;;;;;;33.03;20.60;;;;;;;8.76;100.00;101569.47;5009770;28;20068;-80
2024/01/26 05:27:32;;;;;;;34.50;20.33;;;;;;;8.77;100.00;101564.25;4979616;28;20057;-81
2024/01/26 05:30:00;;;;;;;29.52;19.38;;;;;;;8.78;100.00;101559.88;5010665;28;20046;-79
2024/01/26 05:32:28;;;;;;;32.63;20.13;;;;;;;8.83;100.00;101562.59;5015587;28;20053;-81
2024/01/26 05:34:55;;;;;;;30.67;19.63;;;;;;;8.84;100.00;101556.50;5019892;28;20037;-79
2024/01/26 05:37:23;;;;;;;30.02;18.80;;;;;;;8.87;100.00;101553.94;5013916;28;20107;-78
2024/01/26 05:39:50;;;;;;;26.00;16.98;;;;;;;8.89;100.00;101541.72;5021217;28;20045;-79
2024/01/26 05:42:17;;;;;;;30.65;19.15;;;;;;;8.91;100.00;101537.38;4974068;28;20485;-79
2024/01/26 05:44:45;;;;;;;30.58;18.42;;;;;;;8.91;100.00;101533.00;5025828;28;20407;-80
2024/01/26 05:47:12;;;;;;;32.75;18.10;;;;;;;8.93;100.00;101531.28;5007244;28;20438;-79
2024/01/26 05:49:40;;;;;;;26.38;19.08;;;;;;;8.95;100.00;101516.44;4992391;28;20046;-79
2024/01/26 05:52:08;;;;;;;29.95;18.20;;;;;;;8.99;100.00;101517.38;5007086;28;20518;-78
2024/01/26 05:54:35;;;;;;;28.55;18.17;;;;;;;9.00;100.00;101507.75;5002204;28;20053;-79
2024/01/26 05:57:03;;;;;;;31.83;19.90;;;;;;;9.01;100.00;101509.53;4994360;28;20056;-79
2024/01/26 05:59:30;;;;;;;30.17;19.65;;;;;;;9.03;100.00;101489.41;5008771;28;20042;-79
2024/01/26 06:01:58;;;;;;;32.33;19.65;;;;;;;9.05;100.00;101478.06;4993878;28;20392;-79
2024/01/26 06:04:25;;;;;;;28.75;19.35;;;;;;;9.07;100.00;101464.97;5015432;28;20045;-79
2024/01/26 06:06:52;;;;;;;32.33;21.77;;;;;;;9.10;100.00;101472.91;4999933;28;20072;-78
2024/01/26 06:09:20;;;;;;;30.30;20.13;;;;;;;9.11;100.00;101464.16;4997771;28;20037;-80
2024/01/26 06:11:47;;;;;;;31.20;20.17;;;;;;;9.11;100.00;101461.53;5005618;28;20045;-80
2024/01/26 06:14:15;;;;;;;29.25;19.15;;;;;;;9.11;100.00;101451.91;4985444;28;20045;-82
2024/01/26 06:16:42;;;;;;;29.00;20.63;;;;;;;9.11;100.00;101449.28;4992687;28;20061;-81
2024/01/26 06:19:10;;;;;;;30.80;19.58;;;;;;;9.12;100.00;101453.69;5007609;28;20041;-79
2024/01/26 06:21:37;;;;;;;29.75;19.25;;;;;;;9.13;100.00;101451.91;4993770;28;20052;-80
2024/01/26 06:24:05;;;;;;;31.70;19.73;;;;;;;9.13;100.00;101441.41;5023211;28;20054;-82
2024/01/26 06:26:33;;;;;;;28.42;19.88;;;;;;;9.14;100.00;101440.56;5025961;28;20037;-80
2024/01/26 06:29:00;;;;;;;27.15;19.38;;;;;;;9.14;100.00;101432.69;4979011;28;20044;-80
2024/01/26 06:31:27;;;;;;;27.10;18.08;;;;;;;9.16;100.00;101434.47;5015279;28;20060;-80
2024/01/26 06:33:55;;;;;;;27.02;19.58;;;;;;;9.17;100.00;101427.47;4991846;28;20061;-80
2024/01/26 06:36:23;;;;;;;26.80;19.15;;;;;;;9.17;100.00;101423.09;5003812;28;20058;-80
2024/01/26 06:38:50;;;;;;;25.88;18.95;;;;;;;9.18;100.00;101422.22;4980515;28;20069;-80
2024/01/26 06:41:18;;;;;;;27.35;18.30;;;;;;;9.20;100.00;101416.13;5009577;28;20060;-81
2024/01/26 06:43:51;;;;;;;27.48;18.15;;;;;;;9.20;100.00;101427.53;5005678;28;20490;-79
2024/01/26 06:46:21;;;;;;;30.42;19.08;;;;;;;9.22;100.00;101430.19;5001620;28;20049;-79
2024/01/26 06:48:50;;;;;;;28.42;18.92;;;;;;;9.23;100.00;101443.38;5005632;28;20060;-80
2024/01/26 06:51:18;;;;;;;25.77;18.08;;;;;;;9.23;100.00;101435.47;5018562;28;20045;-79
2024/01/26 06:53:46;;;;;;;25.50;17.40;;;;;;;9.24;100.00;101434.59;4999748;28;20045;-80
2024/01/26 06:56:14;;;;;;;22.67;17.50;;;;;;;9.27;100.00;101432.03;5016797;28;20041;-80
2024/01/26 06:58:41;;;;;;;24.25;17.42;;;;;;;9.30;100.00;101428.56;4998069;28;20406;-80
2024/01/26 07:01:09;;;;;;;28.25;17.50;;;;;;;9.31;100.00;101425.97;4985918;28;20053;-80
2024/01/26 07:03:37;;;;;;;25.30;15.95;;;;;;;9.33;100.00;101413.72;4982034;28;20048;-80
2024/01/26 07:06:04;;;;;;;28.77;16.27;;;;;;;9.34;100.00;101412.00;4997912;28;20057;-80
2024/01/26 07:08:32;;;;;;;22.13;15.93;;;;;;;9.36;100.00;101408.53;4993260;28;20053;-80
2024/01/26 07:11:06;;;;;;;22.58;15.48;;;;;;;9.38;100.00;101397.16;4994027;28;22421;-80
2024/01/26 07:13:33;;;;;;;22.75;15.85;;;;;;;9.38;100.00;101391.91;4995046;28;20049;-81
2024/01/26 07:16:01;;;;;;;22.63;14.75;;;;;;;9.39;100.00;101388.41;4995896;28;20049;-80
2024/01/26 07:18:28;;;;;;;25.67;14.48;;;;;;;9.41;100.00;101399.81;5026020;28;20053;-80
2024/01/26 07:20:56;;;;;;;18.33;13.30;;;;;;;9.41;100.00;101395.44;4996009;28;20036;-80
2024/01/26 07:23:23;;;;;;;20.17;13.43;;;;;;;9.44;100.00;101384.09;5008538;28;20423;-80
2024/01/26 07:25:51;;;;;;;19.48;12.38;;;;;;;9.44;100.00;101378.84;4997679;28;20402;-80
2024/01/26 07:28:18;;;;;;;16.67;12.70;;;;;;;9.44;100.00;101381.47;4989696;28;20558;-80
2024/01/26 07:30:46;;;;;;;14.20;11.02;;;;;;;9.45;100.00;101375.34;4972991;28;20044;-80
2024/01/26 07:33:14;;;;;;;16.85;11.73;;;;;;;9.45;100.00;101376.25;5005284;28;20418;-80
2024/01/26 07:35:42;;;;;;;17.75;11.15;;;;;;;9.47;100.00;101370.97;4989606;28;20060;-80
2024/01/26 07:38:09;;;;;;;14.07;10.10;;;;;;;9.46;100.00;101367.47;5008935;28;20061;-81
2024/01/26 07:40:36;;;;;;;11.95;9.50;;;;;;;9.49;100.00;101379.78;5019791;28;20041;-80
2024/01/26 07:43:04;;;;;;;15.18;10.13;;;;;;;9.51;100.00;101372.81;5010273;28;20057;-81
2024/01/26 07:45:31;;;;;;;12.15;8.82;;;;;;;9.54;100.00;101380.75;4991495;28;21273;-80
2024/01/26 07:47:59;;;;;;;11.27;8.98;;;;;;;9.53;100.00;101379.88;5026136;28;20049;-81
2024/01/26 07:50:26;;;;;;;9.77;8.68;;;;;;;9.52;100.00;101369.31;5023698;28;20057;-80
2024/01/26 07:52:53;;;;;;;10.55;8.30;;;;;;;9.54;100.00;101375.50;5025576;28;20060;-80
2024/01/26 07:55:21;;;;;;;10.90;8.23;;;;;;;9.53;100.00;101371.09;4991486;28;20041;-80
2024/01/26 07:57:48;;;;;;;10.68;8.52;;;;;;;9.53;100.00;101386.88;4993890;28;20076;-81
2024/01/26 08:00:17;;;;;;;10.27;8.43;;;;;;;9.53;100.00;101384.25;5004957;28;20053;-80
2024/01/26 08:02:46;;;;;;;11.25;8.55;;;;;;;9.51;100.00;101385.97;4993924;28;20053;-80
2024/01/26 08:05:14;;;;;;;9.23;6.88;;;;;;;9.52;100.00;101383.34;5020903;28;20072;-81
2024/01/26 08:07:43;;;;;;;7.90;6.90;;;;;;;9.54;100.00;101381.63;5008262;28;20411;-80
2024/01/26 08:10:11;;;;;;;10.13;7.47;;;;;;;9.54;100.00;101389.53;5002288;28;20427;-82
2024/01/26 08:12:42;;;;;;;8.93;6.68;;;;;;;9.54;100.00;101381.63;5006119;28;20062;-80
2024/01/26 08:15:13;;;;;;;10.25;7.18;;;;;;;9.55;100.00;101364.13;5009317;28;20060;-80
2024/01/26 08:17:42;;;;;;;10.25;6.45;;;;;;;9.56;100.00;101376.41;4964661;28;20045;-80
2024/01/26 08:20:11;;;;;;;8.15;6.45;;;;;;;9.56;100.00;101364.16;5009624;28;20042;-80
2024/01/26 08:22:40;;;;;;;7.75;6.80;;;;;;;9.57;100.00;101355.38;5000349;28;20069;-80
2024/01/26 08:25:08;;;;;;;7.13;5.78;;;;;;;9.58;100.00;101348.34;5021558;28;20502;-80
2024/01/26 08:27:36;;;;;;;7.22;5.32;;;;;;;9.59;100.00;101352.78;5019575;28;20060;-79
2024/01/26 08:30:05;;;;;;;6.75;6.05;;;;;;;9.60;100.00;101344.00;5002310;28;20053;-80
2024/01/26 08:32:34;;;;;;;8.25;5.95;;;;;;;9.60;100.00;101346.63;4979320;28;20042;-80
2024/01/26 08:35:01;;;;;;;7.28;5.63;;;;;;;9.61;100.00;101358.06;5020473;28;20057;-79
2024/01/26 08:37:29;;;;;;;7.78;5.40;;;;;;;9.61;100.00;101350.16;5007474;28;20053;-80
2024/01/26 08:39:57;;;;;;;6.53;5.25;;;;;;;9.61;100.00;101353.69;5004208;28;20049;-81
2024/01/26 08:42:25;;;;;;;7.55;5.40;;;;;;;9.60;100.00;101338.75;5002798;28;20449;-80
2024/01/26 08:44:53;;;;;;;7.43;5.75;;;;;;;9.61;100.00;101335.25;5019284;28;20487;-80
2024/01/26 08:47:20;;;;;;;7.60;6.22;;;;;;;9.59;100.00;101339.63;5018532;28;20399;-80
2024/01/26 08:49:47;;;;;;;5.93;4.43;;;;;;;9.60;100.00;101337.88;4965514;28;20769;-80
2024/01/26 08:52:15;;;;;;;6.25;4.45;;;;;;;9.61;100.00;101351.03;5025641;28;20041;-80
2024/01/26 08:54:43;;;;;;;5.90;4.55;;;;;;;9.62;100.00;101352.84;5011583;28;20507;-80
2024/01/26 08:57:11;;;;;;;5.25;4.50;;;;;;;9.63;100.00;101344.06;5018509;28;20057;-80
2024/01/26 08:59:40;;;;;;;3.75;3.45;;;;;;;9.63;100.00;101351.94;4996788;28;20050;-80
2024/01/26 09:02:08;;;;;;;3.42;3.13;;;;;;;9.64;100.00;101335.31;5027471;28;20050;-82
2024/01/26 09:04:35;;;;;;;4.55;3.30;;;;;;;9.63;100.00;101333.53;4979077;28;20057;-80
2024/01/26 09:07:03;;;;;;;4.20;3.47;;;;;;;9.63;100.00;101338.78;5010737;28;20060;-82
2024/01/26 09:09:37;;;;;;;5.28;3.78;;;;;;;9.63;100.00;101337.91;5005974;28;20045;-80
2024/01/26 09:12:05;;;;;;;8.05;4.53;;;;;;;9.61;100.00;101337.88;5002609;28;20037;-81
2024/01/26 09:14:33;;;;;;;7.10;4.38;;;;;;;9.61;100.00;101335.25;5023811;28;20046;-81
2024/01/26 09:17:01;;;;;;;9.85;5.38;;;;;;;9.62;100.00;101331.78;5028556;28;20509;-81
2024/01/26 09:19:28;;;;;;;16.08;6.40;;;;;;;9.62;100.00;101342.31;5037629;28;20418;-80
2024/01/26 09:21:56;;;;;;;13.10;4.50;;;;;;;9.61;100.00;101340.53;4980793;28;20490;-80
2024/01/26 09:24:25;;;;;;;8.88;4.88;;;;;;;9.62;100.00;101376.50;5014101;28;20057;-80
2024/01/26 09:26:55;;;;;;;13.05;3.75;;;;;;;9.55;100.00;101417.63;5007062;28;20045;-82
2024/01/26 09:29:25;;;;;;;7.80;2.80;;;;;;;9.39;100.00;101380.50;5010985;28;20048;-80
2024/01/26 09:31:54;;;;;;;6.13;1.58;;;;;;;9.14;100.00;101406.38;4987458;28;20053;-82
2024/01/26 09:34:22;;;;;;;4.07;1.40;;;;;;;8.85;100.00;101414.63;4997580;28;20054;-81
2024/01/26 09:36:50;;;;;;;4.10;1.08;;;;;;;8.68;100.00;101416.03;4986636;28;20057;-81
2024/01/26 09:39:21;;;;;;;4.60;1.17;;;;;;;8.58;100.00;101422.81;5024433;28;20050;-79
2024/01/26 09:41:49;;;;;;;3.63;1.10;;;;;;;8.56;100.00;101438.56;4998117;28;20072;-79
2024/01/26 09:44:16;;;;;;;9.63;1.83;;;;;;;8.53;100.00;101438.50;4996607;28;20783;-79
2024/01/26 09:46:44;;;;;;;5.88;1.58;;;;;;;8.44;100.00;101446.19;5000225;28;20506;-79
2024/01/26 09:49:12;;;;;;;8.70;2.97;;;;;;;8.42;100.00;101461.03;5000223;28;20053;-79
2024/01/26 09:51:40;;;;;;;8.60;2.05;;;;;;;8.39;100.00;101466.16;4975802;28;20423;-80
2024/01/26 09:54:09;;;;;;;12.98;1.80;;;;;;;8.37;100.00;101473.13;4973529;28;20060;-79
2024/01/26 09:56:39;;;;;;;14.13;2.78;;;;;;;8.32;100.00;101490.53;4992009;28;20056;-79
2024/01/26 09:59:08;;;;;;;12.63;2.17;;;;;;;8.29;100.00;101520.22;5015317;28;20045;-79
2024/01/26 10:01:36;;;;;;;13.20;2.90;;;;;;;8.26;100.00;101535.00;4985949;28;20455;-79
2024/01/26 10:04:04;;;;;;;11.25;2.28;;;;;;;8.17;100.00;101548.81;4998860;28;20064;-79
2024/01/26 10:06:33;;;;;;;17.38;2.47;;;;;;;8.13;100.00;101560.09;4973627;28;20049;-79
2024/01/26 10:09:03;;;;;;;15.90;3.33;;;;;;;8.11;100.00;101570.56;5005697;28;20096;-79
2024/01/26 10:11:31;;;;;;;10.50;2.67;;;;;;;8.04;100.00;101567.75;4992110;28;20057;-79
2024/01/26 10:13:58;;;;;;;9.80;2.33;;;;;;;8.01;100.00;101579.03;4999320;28;20299;-80
2024/01/26 10:16:26;;;;;;;11.05;2.70;;;;;;;7.92;100.00;101589.28;4991661;28;20049;-79
2024/01/26 10:18:54;;;;;;;20.95;3.42;;;;;;;7.88;100.00;101598.84;5007815;28;20442;-79
2024/01/26 10:21:22;;;;;;;27.20;4.00;;;;;;;7.87;100.00;101601.44;4983157;28;20060;-78
2024/01/26 10:23:51;;;;;;;18.70;3.65;;;;;;;7.86;100.00;101604.88;4990386;28;20061;-79
2024/01/26 10:26:19;;;;;;;21.33;4.25;;;;;;;7.81;100.00;101605.66;5006249;28;20064;-79
2024/01/26 10:28:48;;;;;;;17.67;4.00;;;;;;;7.76;100.00;101598.50;5001398;28;20068;-80
2024/01/26 10:31:15;;;;;;;23.80;4.60;;;;;;;7.72;100.00;101605.41;5000844;28;20422;-79
2024/01/26 10:33:46;;;;;;;21.05;3.83;;;;;;;7.75;100.00;101621.25;5006096;28;20037;-78
2024/01/26 10:36:15;;;;;;;21.48;4.13;;;;;;;7.74;100.00;101613.34;4982352;28;20072;-79
2024/01/26 10:38:45;;;;;;;18.17;3.80;;;;;;;7.71;100.00;101636.84;4961639;28;20045;-79
2024/01/26 10:41:19;;;;;;;21.42;4.28;;;;;;;7.72;100.00;101643.88;4999034;28;20060;-79
2024/01/26 10:43:51;;;;;;;17.38;4.30;;;;;;;7.69;100.00;101643.78;5025144;28;20525;-79
2024/01/26 10:46:19;;;;;;;18.45;3.80;;;;;;;7.70;100.00;101646.47;4997277;28;20375;-79
2024/01/26 10:48:47;;;;;;;16.48;3.05;;;;;;;7.68;100.00;101640.28;5016994;28;20694;-79
2024/01/26 10:51:17;;;;;;;20.63;3.25;;;;;;;7.65;100.00;101648.06;5015729;28;20064;-79
2024/01/26 10:53:48;;;;;;;17.07;3.50;;;;;;;7.63;100.00;101649.75;4991373;28;20037;-79
2024/01/26 10:56:16;;;;;;;;;;;;;;;7.60;100.00;101670.66;4998542;28;20076;-79
2024/01/26 10:58:43;;;;;;;12.63;3.22;;;;;;;7.59;100.00;101663.63;5020412;28;19925;-78
2024/01/26 11:01:12;;;;;;;17.55;3.33;;;;;;;7.63;100.00;101657.63;4994708;28;20623;-79
2024/01/26 11:03:40;;;;;;;18.65;3.15;;;;;;;7.62;100.00;101679.47;5013669;28;20076;-79
2024/01/26 11:06:09;;;;;;;20.52;3.42;;;;;;;7.65;100.00;101692.66;4993551;28;20054;-79
2024/01/26 11:08:40;;;;;;;19.95;3.70;;;;;;;7.66;100.00;101706.69;4968784;28;20057;-79
2024/01/26 11:11:08;;;;;;;19.55;4.07;;;;;;;7.67;100.00;101704.06;5013262;28;20060;-79
2024/01/26 11:13:37;;;;;;;16.90;3.13;;;;;;;7.65;100.00;101700.53;5004124;28;20049;-79
2024/01/26 11:16:06;;;;;;;21.48;4.57;;;;;;;7.65;100.00;101711.03;5018874;28;20505;-78